Time;durP1;ratioP1;P1;durP2;ratioP2;P2;SDS_P1;SDS_P2;PMS_P1;PMS_P2;Temp;Humidity;BMP_temperature;BMP_pressure;BME280_temperature;BME280_humidity;BME280_pressure;Samples;Min_cycle;Max_cycle;Signal;HPM_P1;HPM_P2
2023/05/12 00:00:58;;;;;;;21.08;18.92;;;16.00;99.90;;;;;;2091709;28;20028;-72
2023/05/12 00:01:58;;;;;;;21.48;19.45;;;16.00;99.90;;;;;;2092648;28;20436;-72
2023/05/12 00:03:01;;;;;;;19.23;17.38;;;16.00;99.90;;;;;;2094949;28;20437;-72
2023/05/12 00:04:01;;;;;;;21.38;19.35;;;15.90;99.90;;;;;;2092021;28;20392;-72
2023/05/12 00:05:03;;;;;;;21.13;19.15;;;16.00;99.90;;;;;;2094129;28;20028;-72
2023/05/12 00:06:03;;;;;;;21.20;19.10;;;16.00;99.90;;;;;;2092994;28;20894;-72
2023/05/12 00:07:05;;;;;;;21.83;19.83;;;16.00;99.90;;;;;;2091450;28;20495;-72
2023/05/12 00:08:06;;;;;;;22.88;20.67;;;16.00;99.90;;;;;;2093114;28;20027;-72
2023/05/12 00:09:06;;;;;;;21.33;19.25;;;16.00;99.90;;;;;;2093651;28;20053;-72
2023/05/12 00:10:07;;;;;;;22.75;20.35;;;15.90;99.90;;;;;;2093319;28;20016;-72
2023/05/12 00:11:08;;;;;;;23.95;21.45;;;16.00;99.90;;;;;;2091781;28;20044;-72
2023/05/12 00:12:08;;;;;;;25.30;22.90;;;16.00;99.90;;;;;;2094828;28;20106;-72
2023/05/12 00:13:09;;;;;;;23.80;21.40;;;16.00;99.90;;;;;;2092905;28;20016;-72
2023/05/12 00:14:09;;;;;;;24.13;21.70;;;15.90;99.90;;;;;;2096330;28;20085;-72
2023/05/12 00:15:10;;;;;;;24.90;22.48;;;15.90;99.90;;;;;;2092135;28;20475;-72
2023/05/12 00:16:11;;;;;;;24.95;22.65;;;15.90;99.90;;;;;;2090759;28;20023;-72
2023/05/12 00:17:12;;;;;;;25.08;22.38;;;15.90;99.90;;;;;;2090469;28;20028;-72
2023/05/12 00:18:13;;;;;;;24.05;21.85;;;16.00;99.90;;;;;;2094661;28;20021;-72
2023/05/12 00:19:13;;;;;;;24.67;22.17;;;16.00;99.90;;;;;;2092233;28;20059;-72
2023/05/12 00:20:14;;;;;;;25.58;23.17;;;15.90;99.90;;;;;;2091512;28;20025;-72
2023/05/12 00:21:14;;;;;;;25.13;22.52;;;16.00;99.90;;;;;;2091281;28;20013;-72
2023/05/12 00:22:15;;;;;;;26.30;23.60;;;16.00;99.90;;;;;;2091611;28;20063;-72
2023/05/12 00:23:16;;;;;;;25.92;23.42;;;16.00;99.90;;;;;;2091067;28;20025;-72
2023/05/12 00:24:17;;;;;;;25.75;23.23;;;16.00;99.90;;;;;;2091353;28;20067;-72
2023/05/12 00:25:17;;;;;;;27.13;24.58;;;16.00;99.90;;;;;;2091275;28;20025;-72
2023/05/12 00:26:18;;;;;;;26.60;24.00;;;16.00;99.90;;;;;;2091665;28;20032;-72
2023/05/12 00:27:18;;;;;;;26.75;24.02;;;16.00;99.90;;;;;;2092554;28;20036;-72
2023/05/12 00:28:19;;;;;;;26.60;23.88;;;16.00;99.90;;;;;;2091821;28;20082;-72
2023/05/12 00:29:19;;;;;;;27.52;24.90;;;16.00;99.90;;;;;;2093382;28;20033;-72
2023/05/12 00:30:20;;;;;;;26.38;23.80;;;16.00;99.90;;;;;;2088750;28;20036;-72
2023/05/12 00:31:21;;;;;;;26.60;24.00;;;16.00;99.90;;;;;;2092714;28;20413;-72
2023/05/12 00:32:21;;;;;;;27.35;24.63;;;16.00;99.90;;;;;;2092559;28;20035;-72
2023/05/12 00:33:22;;;;;;;27.85;25.23;;;16.00;99.90;;;;;;2094520;28;20111;-72
2023/05/12 00:34:22;;;;;;;27.20;24.58;;;16.00;99.90;;;;;;2093436;28;20464;-72
2023/05/12 00:35:23;;;;;;;28.88;25.88;;;16.00;99.90;;;;;;2094080;28;20016;-72
2023/05/12 00:36:23;;;;;;;26.92;24.20;;;16.00;99.90;;;;;;2090681;28;20013;-72
2023/05/12 00:37:24;;;;;;;27.02;24.40;;;16.00;99.90;;;;;;2086161;28;20622;-72
2023/05/12 00:38:25;;;;;;;27.48;24.77;;;16.00;99.90;;;;;;2094070;28;20604;-72
2023/05/12 00:39:25;;;;;;;27.80;25.05;;;16.00;99.90;;;;;;2094374;28;20458;-72
2023/05/12 00:40:26;;;;;;;27.27;24.63;;;16.00;99.90;;;;;;2094879;28;20025;-72
2023/05/12 00:41:27;;;;;;;27.33;24.35;;;16.00;99.90;;;;;;2096247;28;20023;-73
2023/05/12 00:42:27;;;;;;;26.27;23.67;;;15.90;99.90;;;;;;2094905;28;20036;-72
2023/05/12 00:43:28;;;;;;;26.52;23.83;;;15.90;99.90;;;;;;2094516;28;20057;-72
2023/05/12 00:44:28;;;;;;;25.73;23.33;;;15.90;99.90;;;;;;2092060;28;20013;-72
2023/05/12 00:45:30;;;;;;;26.98;24.27;;;15.90;99.90;;;;;;2089494;28;20420;-72
2023/05/12 00:46:30;;;;;;;26.35;23.85;;;15.90;99.90;;;;;;2092358;28;20025;-72
2023/05/12 00:47:31;;;;;;;26.58;24.00;;;15.90;99.90;;;;;;2093274;28;20034;-72
2023/05/12 00:48:32;;;;;;;25.98;23.58;;;15.90;99.90;;;;;;2093154;28;20764;-72
2023/05/12 00:49:32;;;;;;;26.05;23.65;;;15.90;99.90;;;;;;2093681;28;20477;-72
2023/05/12 00:50:33;;;;;;;25.33;22.95;;;15.90;99.90;;;;;;2091472;28;20673;-72
2023/05/12 00:51:34;;;;;;;26.67;24.13;;;15.90;99.90;;;;;;2093833;28;20035;-72
2023/05/12 00:52:35;;;;;;;25.83;23.35;;;16.00;99.90;;;;;;2093142;28;20021;-72
2023/05/12 00:53:36;;;;;;;25.52;23.15;;;16.00;99.90;;;;;;2093442;28;20021;-72
2023/05/12 00:54:38;;;;;;;25.23;22.83;;;15.90;99.90;;;;;;2093366;28;20043;-72
2023/05/12 00:55:39;;;;;;;23.95;21.75;;;15.90;99.90;;;;;;2094851;28;20403;-72
2023/05/12 00:56:40;;;;;;;23.63;21.33;;;15.90;99.90;;;;;;2095492;28;20069;-72
2023/05/12 00:57:42;;;;;;;23.85;21.58;;;15.90;99.90;;;;;;2092128;28;20082;-73
2023/05/12 00:58:43;;;;;;;22.83;20.52;;;15.90;99.90;;;;;;2092061;28;20024;-72
2023/05/12 00:59:43;;;;;;;22.40;20.38;;;15.90;99.90;;;;;;2090696;28;20028;-72
2023/05/12 01:00:44;;;;;;;22.60;20.40;;;15.90;99.90;;;;;;2089882;28;20080;-72
2023/05/12 01:01:46;;;;;;;22.30;20.20;;;15.90;99.90;;;;;;2091135;28;20033;-72
2023/05/12 01:02:47;;;;;;;24.40;22.08;;;15.90;99.90;;;;;;2091549;28;20055;-72
2023/05/12 01:03:47;;;;;;;22.10;20.10;;;15.90;99.90;;;;;;2094240;28;20493;-72
2023/05/12 01:04:48;;;;;;;23.73;20.83;;;15.90;99.90;;;;;;2087439;28;20033;-72
2023/05/12 01:06:16;;;;;;;22.75;20.65;;;15.90;99.90;;;;;;2091740;28;20574;-72
2023/05/12 01:07:23;;;;;;;21.98;19.92;;;15.80;99.90;;;;;;2089416;28;20485;-72
2023/05/12 01:08:24;;;;;;;23.48;21.17;;;15.80;99.90;;;;;;2090086;28;20046;-72
2023/05/12 01:09:24;;;;;;;21.77;19.67;;;15.80;99.90;;;;;;2092764;28;20562;-72
2023/05/12 01:10:25;;;;;;;21.65;19.65;;;15.80;99.90;;;;;;2090706;28;20042;-71
2023/05/12 01:11:25;;;;;;;21.65;19.45;;;15.80;99.90;;;;;;2093322;28;20373;-72
2023/05/12 01:12:26;;;;;;;21.52;19.33;;;15.80;99.90;;;;;;2091776;28;20049;-72
2023/05/12 01:13:27;;;;;;;21.13;19.02;;;15.80;99.90;;;;;;2092265;28;20025;-72
2023/05/12 01:14:28;;;;;;;21.15;19.15;;;15.80;99.90;;;;;;2091417;28;20024;-72
2023/05/12 01:15:31;;;;;;;21.15;18.98;;;15.80;99.90;;;;;;2093644;28;20021;-72
2023/05/12 01:16:39;;;;;;;21.38;19.25;;;15.80;99.90;;;;;;2093137;28;20021;-72
2023/05/12 01:17:43;;;;;;;19.90;17.98;;;15.80;99.90;;;;;;2090792;28;20029;-73
2023/05/12 01:18:49;;;;;;;20.55;18.65;;;15.80;99.90;;;;;;2090413;28;20028;-72
2023/05/12 01:19:58;;;;;;;20.05;18.15;;;15.80;99.90;;;;;;2090555;28;20110;-72
2023/05/12 01:20:59;;;;;;;19.67;17.88;;;15.80;99.90;;;;;;2092793;28;20099;-72
2023/05/12 01:22:00;;;;;;;20.15;18.25;;;15.80;99.90;;;;;;2095335;28;20020;-72
2023/05/12 01:23:01;;;;;;;19.63;17.83;;;15.80;99.90;;;;;;2093056;28;20036;-72
2023/05/12 01:24:07;;;;;;;20.48;18.30;;;15.80;99.90;;;;;;2091959;28;20426;-72
2023/05/12 01:25:10;;;;;;;19.77;17.88;;;15.80;99.90;;;;;;2092895;28;20017;-72
2023/05/12 01:26:11;;;;;;;19.85;17.95;;;15.80;99.90;;;;;;2092145;28;20033;-73
2023/05/12 01:27:14;;;;;;;19.70;17.73;;;15.80;99.90;;;;;;2093462;28;20028;-72
2023/05/12 01:28:16;;;;;;;20.23;18.30;;;15.80;99.90;;;;;;2092298;28;20012;-72
2023/05/12 01:29:17;;;;;;;19.35;17.40;;;15.80;99.90;;;;;;2092044;28;20020;-72
2023/05/12 01:30:20;;;;;;;19.70;17.70;;;15.70;99.90;;;;;;2094515;28;20032;-72
2023/05/12 01:31:20;;;;;;;18.90;17.10;;;15.80;99.90;;;;;;2092776;28;20142;-72
2023/05/12 01:32:21;;;;;;;19.75;17.95;;;15.80;99.90;;;;;;2092462;28;20024;-72
2023/05/12 01:33:22;;;;;;;19.58;17.75;;;15.80;99.90;;;;;;2092025;28;20025;-72
2023/05/12 01:34:23;;;;;;;18.48;16.77;;;15.80;99.90;;;;;;2093777;28;20024;-72
2023/05/12 01:35:23;;;;;;;19.65;16.90;;;15.80;99.90;;;;;;2092116;28;20021;-72
2023/05/12 01:36:24;;;;;;;18.77;17.08;;;15.70;99.90;;;;;;2095017;28;20017;-72
2023/05/12 01:37:25;;;;;;;19.75;17.85;;;15.80;99.90;;;;;;2095891;28;20546;-72
2023/05/12 01:38:26;;;;;;;18.63;16.90;;;15.70;99.90;;;;;;2091756;28;20048;-72
2023/05/12 01:39:26;;;;;;;18.85;17.15;;;15.80;99.90;;;;;;2093747;28;20020;-72
2023/05/12 01:40:27;;;;;;;18.38;16.67;;;15.80;99.90;;;;;;2093230;28;20025;-72
2023/05/12 01:41:28;;;;;;;19.23;17.33;;;15.80;99.90;;;;;;2092975;28;20078;-72
2023/05/12 01:42:28;;;;;;;18.98;17.17;;;15.80;99.90;;;;;;2095017;28;20112;-72
2023/05/12 01:43:29;;;;;;;18.65;16.95;;;15.80;99.90;;;;;;2094423;28;20091;-72
2023/05/12 01:44:30;;;;;;;19.38;17.48;;;15.80;99.90;;;;;;2092714;28;20017;-72
2023/05/12 01:45:30;;;;;;;19.02;17.13;;;15.80;99.90;;;;;;2093541;28;20020;-72
2023/05/12 01:46:31;;;;;;;19.17;17.17;;;15.70;99.90;;;;;;2092823;28;20017;-72
2023/05/12 01:47:31;;;;;;;19.10;17.30;;;15.70;99.90;;;;;;2096896;28;20024;-72
2023/05/12 01:48:32;;;;;;;18.30;16.60;;;15.80;99.90;;;;;;2095580;28;20390;-71
2023/05/12 01:49:33;;;;;;;18.33;16.60;;;15.70;99.90;;;;;;2095243;28;20479;-72
2023/05/12 01:50:33;;;;;;;18.92;17.02;;;15.70;99.90;;;;;;2093379;28;20082;-72
2023/05/12 01:51:34;;;;;;;18.73;17.00;;;15.70;99.90;;;;;;2092214;28;20024;-72
2023/05/12 01:52:34;;;;;;;19.23;17.27;;;15.70;99.90;;;;;;2096081;28;20065;-72
2023/05/12 01:53:35;;;;;;;19.23;17.33;;;15.70;99.90;;;;;;2095868;28;20074;-72
2023/05/12 01:54:35;;;;;;;18.65;16.77;;;15.70;99.90;;;;;;2094794;28;20358;-72
2023/05/12 01:55:36;;;;;;;18.73;16.83;;;15.70;99.90;;;;;;2095983;28;20111;-72
2023/05/12 01:56:36;;;;;;;18.30;16.50;;;15.70;99.90;;;;;;2093883;28;20032;-72
2023/05/12 01:57:37;;;;;;;18.38;16.58;;;15.70;99.90;;;;;;2088521;28;20955;-72
2023/05/12 01:58:37;;;;;;;18.52;16.60;;;15.70;99.90;;;;;;2094127;28;20013;-72
2023/05/12 01:59:38;;;;;;;19.10;17.13;;;15.70;99.90;;;;;;2096945;28;20070;-72
2023/05/12 02:00:38;;;;;;;18.50;16.58;;;15.60;99.90;;;;;;2093003;28;20411;-72
2023/05/12 02:01:39;;;;;;;18.75;17.02;;;15.60;99.90;;;;;;2095227;28;20025;-71
2023/05/12 02:02:41;;;;;;;18.50;16.70;;;15.70;99.90;;;;;;2093038;28;20025;-72
2023/05/12 02:03:42;;;;;;;18.58;16.80;;;15.60;99.90;;;;;;2092463;28;20178;-72
2023/05/12 02:04:43;;;;;;;18.30;16.60;;;15.60;99.90;;;;;;2093373;28;20441;-72
2023/05/12 02:05:43;;;;;;;19.50;17.70;;;15.60;99.90;;;;;;2095721;28;20036;-72
2023/05/12 02:06:44;;;;;;;18.60;16.90;;;15.60;99.90;;;;;;2094768;28;20017;-72
2023/05/12 02:07:44;;;;;;;19.08;17.17;;;15.60;99.90;;;;;;2093692;28;20021;-72
2023/05/12 02:08:45;;;;;;;18.25;16.55;;;15.60;99.90;;;;;;2091092;28;20033;-72
2023/05/12 02:09:46;;;;;;;17.65;15.98;;;15.60;99.90;;;;;;2092696;28;20516;-72
2023/05/12 02:10:46;;;;;;;18.45;16.33;;;15.60;99.90;;;;;;2091250;28;20046;-72
2023/05/12 02:11:47;;;;;;;19.40;17.33;;;15.60;99.90;;;;;;2093647;28;20086;-72
2023/05/12 02:12:48;;;;;;;19.48;17.48;;;15.60;99.90;;;;;;2092868;28;20190;-72
2023/05/12 02:13:48;;;;;;;18.77;16.88;;;15.60;99.90;;;;;;2095221;28;20047;-72
2023/05/12 02:14:49;;;;;;;19.50;17.58;;;15.60;99.90;;;;;;2092493;28;20033;-72
2023/05/12 02:15:50;;;;;;;18.02;16.23;;;15.60;99.90;;;;;;2094440;28;20072;-72
2023/05/12 02:16:51;;;;;;;18.25;16.45;;;15.60;99.90;;;;;;2093826;28;20033;-72
2023/05/12 02:17:53;;;;;;;20.13;16.80;;;15.60;99.90;;;;;;2091622;28;20021;-72
2023/05/12 02:18:53;;;;;;;18.58;16.88;;;15.60;99.90;;;;;;2093271;28;20017;-72
2023/05/12 02:19:54;;;;;;;18.85;17.08;;;15.60;99.90;;;;;;2092957;28;20032;-72
2023/05/12 02:20:55;;;;;;;17.67;15.98;;;15.60;99.90;;;;;;2091372;28;20183;-72
2023/05/12 02:21:55;;;;;;;18.85;16.95;;;15.60;99.90;;;;;;2092469;28;20060;-72
2023/05/12 02:22:56;;;;;;;18.58;16.77;;;15.60;99.90;;;;;;2092255;28;20029;-72
2023/05/12 02:23:56;;;;;;;19.63;17.73;;;15.50;99.90;;;;;;2094380;28;20092;-72
2023/05/12 02:24:57;;;;;;;18.20;16.45;;;15.60;99.90;;;;;;2092948;28;20016;-72
2023/05/12 02:25:57;;;;;;;17.77;15.82;;;15.60;99.90;;;;;;2094037;28;20040;-72
2023/05/12 02:26:58;;;;;;;17.98;16.27;;;15.50;99.90;;;;;;2093114;28;20163;-72
2023/05/12 02:27:58;;;;;;;18.23;16.30;;;15.50;99.90;;;;;;2093488;28;20065;-72
2023/05/12 02:28:59;;;;;;;18.17;16.40;;;15.50;99.90;;;;;;2093619;28;20393;-72
2023/05/12 02:29:59;;;;;;;17.08;15.38;;;15.50;99.90;;;;;;2091786;28;20036;-72
2023/05/12 02:31:00;;;;;;;17.98;16.23;;;15.50;99.90;;;;;;2093888;28;20071;-72
2023/05/12 02:32:00;;;;;;;17.65;15.88;;;15.50;99.90;;;;;;2093373;28;20462;-72
2023/05/12 02:33:01;;;;;;;17.15;15.45;;;15.50;99.90;;;;;;2094933;28;20025;-72
2023/05/12 02:34:02;;;;;;;17.25;15.68;;;15.50;99.90;;;;;;2092084;28;20033;-72
2023/05/12 02:35:03;;;;;;;17.33;15.73;;;15.50;99.90;;;;;;2091385;28;20025;-72
2023/05/12 02:36:04;;;;;;;17.75;16.05;;;15.50;99.90;;;;;;2097129;28;20024;-72
2023/05/12 02:37:05;;;;;;;17.40;15.60;;;15.50;99.90;;;;;;2095119;28;20032;-72
2023/05/12 02:38:05;;;;;;;18.15;15.82;;;15.50;99.90;;;;;;2092656;28;20032;-72
2023/05/12 02:39:06;;;;;;;16.27;14.70;;;15.50;99.90;;;;;;2093882;28;20025;-72
2023/05/12 02:40:07;;;;;;;16.83;15.23;;;15.50;99.90;;;;;;2092927;28;20017;-72
2023/05/12 02:41:08;;;;;;;16.88;15.15;;;15.50;99.90;;;;;;2091551;28;20035;-72
2023/05/12 02:42:08;;;;;;;16.58;14.98;;;15.50;99.90;;;;;;2094306;28;20481;-72
2023/05/12 02:43:09;;;;;;;16.70;15.00;;;15.60;99.90;;;;;;2094148;28;20054;-72
2023/05/12 02:44:09;;;;;;;21.65;16.35;;;15.60;99.90;;;;;;2094337;28;20495;-72
2023/05/12 02:45:10;;;;;;;16.83;15.13;;;15.60;99.90;;;;;;2095628;28;20032;-72
2023/05/12 02:46:11;;;;;;;16.55;14.95;;;15.60;99.90;;;;;;2094243;28;20608;-72
2023/05/12 02:47:12;;;;;;;17.50;15.75;;;15.60;99.90;;;;;;2094591;28;20021;-72
2023/05/12 02:48:12;;;;;;;16.98;15.15;;;15.60;99.90;;;;;;2091003;28;20025;-72
2023/05/12 02:49:13;;;;;;;17.42;14.77;;;15.60;99.90;;;;;;2093481;28;20032;-72
2023/05/12 02:50:14;;;;;;;16.40;14.75;;;15.50;99.90;;;;;;2094541;28;20028;-72
2023/05/12 02:51:14;;;;;;;15.45;14.05;;;15.50;99.90;;;;;;2096918;28;20020;-72
2023/05/12 02:52:15;;;;;;;16.25;14.75;;;15.50;99.90;;;;;;2094620;28;20056;-72
2023/05/12 02:53:15;;;;;;;16.58;14.98;;;15.50;99.90;;;;;;2094037;28;21215;-72
2023/05/12 02:54:16;;;;;;;15.95;14.52;;;15.50;99.90;;;;;;2091824;28;20024;-72
2023/05/12 02:55:17;;;;;;;16.42;14.93;;;15.50;99.90;;;;;;2094267;28;20477;-72
2023/05/12 02:56:17;;;;;;;15.88;14.38;;;15.50;99.90;;;;;;2092789;28;20079;-72
2023/05/12 02:57:18;;;;;;;16.60;15.05;;;15.50;99.90;;;;;;2092518;28;20461;-72
2023/05/12 02:58:18;;;;;;;16.83;15.23;;;15.50;99.90;;;;;;2092198;28;20129;-72
2023/05/12 02:59:19;;;;;;;15.80;14.30;;;15.50;99.90;;;;;;2094116;28;20082;-72
2023/05/12 03:00:19;;;;;;;14.63;13.20;;;15.50;99.90;;;;;;2092692;28;20039;-72
2023/05/12 03:01:20;;;;;;;15.23;13.73;;;15.50;99.90;;;;;;2084616;28;20025;-71
2023/05/12 03:02:21;;;;;;;15.40;13.80;;;15.50;99.90;;;;;;2086487;28;20040;-72
2023/05/12 03:03:21;;;;;;;15.85;14.32;;;15.40;99.90;;;;;;2085063;28;20095;-72
2023/05/12 03:04:22;;;;;;;14.82;13.40;;;15.40;99.90;;;;;;2091165;28;20029;-72
2023/05/12 03:05:22;;;;;;;15.60;14.05;;;15.40;99.90;;;;;;2092397;28;20119;-72
2023/05/12 03:06:23;;;;;;;14.05;12.65;;;15.40;99.90;;;;;;2092843;28;20464;-72
2023/05/12 03:07:24;;;;;;;14.98;13.40;;;15.40;99.90;;;;;;2092715;28;20028;-72
2023/05/12 03:08:24;;;;;;;16.50;13.80;;;15.40;99.90;;;;;;2092974;28;20373;-72
2023/05/12 03:09:25;;;;;;;14.35;13.10;;;15.40;99.90;;;;;;2092013;28;20075;-72
2023/05/12 03:10:25;;;;;;;14.07;12.52;;;15.40;99.90;;;;;;2092619;28;20017;-72
2023/05/12 03:11:26;;;;;;;13.38;11.98;;;15.40;99.90;;;;;;2093791;28;20074;-72
2023/05/12 03:12:30;;;;;;;14.15;12.77;;;15.40;99.90;;;;;;2094496;28;20454;-72
2023/05/12 03:13:30;;;;;;;15.43;12.68;;;15.40;99.90;;;;;;2092996;28;20099;-72
2023/05/12 03:14:31;;;;;;;13.52;12.32;;;15.40;99.90;;;;;;2092193;28;20064;-72
2023/05/12 03:15:31;;;;;;;13.75;12.45;;;15.40;99.90;;;;;;2091618;28;20104;-71
2023/05/12 03:16:32;;;;;;;13.35;12.07;;;15.40;99.90;;;;;;2092525;28;20468;-72
2023/05/12 03:17:33;;;;;;;13.25;11.95;;;15.40;99.90;;;;;;2094083;28;20534;-72
2023/05/12 03:18:33;;;;;;;13.98;11.75;;;15.40;99.90;;;;;;2093957;28;20045;-72
2023/05/12 03:19:34;;;;;;;12.60;11.40;;;15.40;99.90;;;;;;2094427;28;20024;-72
2023/05/12 03:20:34;;;;;;;13.02;11.82;;;15.40;99.90;;;;;;2092627;28;20064;-72
2023/05/12 03:21:35;;;;;;;13.73;11.30;;;15.40;99.90;;;;;;2093597;28;20107;-72
2023/05/12 03:22:36;;;;;;;12.07;10.93;;;15.30;99.90;;;;;;2094257;28;20025;-72
2023/05/12 03:23:36;;;;;;;13.38;11.02;;;15.30;99.90;;;;;;2092805;28;20021;-72
2023/05/12 03:24:37;;;;;;;12.27;10.13;;;15.30;99.90;;;;;;2095651;28;20483;-72
2023/05/12 03:25:37;;;;;;;11.75;10.35;;;15.30;99.90;;;;;;2094793;28;20020;-72
2023/05/12 03:26:38;;;;;;;11.30;10.23;;;15.30;99.90;;;;;;2092246;28;20794;-72
2023/05/12 03:27:38;;;;;;;10.07;9.18;;;15.30;99.90;;;;;;2092477;28;20020;-72
2023/05/12 03:28:39;;;;;;;15.07;10.18;;;15.30;99.90;;;;;;2093068;28;20028;-72
2023/05/12 03:29:40;;;;;;;11.52;10.07;;;15.30;99.90;;;;;;2093092;28;20392;-72
2023/05/12 03:30:40;;;;;;;12.23;9.75;;;15.20;99.90;;;;;;2093478;28;20024;-72
2023/05/12 03:31:41;;;;;;;12.95;10.52;;;15.30;99.90;;;;;;2094055;28;20029;-72
2023/05/12 03:32:43;;;;;;;13.25;9.55;;;15.20;99.90;;;;;;2094517;28;20481;-72
2023/05/12 03:33:43;;;;;;;13.18;9.68;;;15.20;99.90;;;;;;2092539;28;20123;-72
2023/05/12 03:34:44;;;;;;;10.60;9.27;;;15.20;99.90;;;;;;2092358;28;20039;-72
2023/05/12 03:35:44;;;;;;;10.50;9.50;;;15.20;99.90;;;;;;2093616;28;20063;-72
2023/05/12 03:36:45;;;;;;;10.68;9.60;;;15.20;99.90;;;;;;2093559;28;20520;-72
2023/05/12 03:37:45;;;;;;;9.98;9.07;;;15.20;99.90;;;;;;2092032;28;20071;-72
2023/05/12 03:38:46;;;;;;;10.30;9.30;;;15.20;99.90;;;;;;2093751;28;20481;-72
2023/05/12 03:39:47;;;;;;;10.70;9.75;;;15.10;99.90;;;;;;2094674;28;20029;-72
2023/05/12 03:40:51;;;;;;;10.93;9.90;;;15.10;99.90;;;;;;2095880;28;20031;-72
2023/05/12 03:41:52;;;;;;;10.00;8.90;;;15.20;99.90;;;;;;2093347;28;20048;-72
2023/05/12 03:42:52;;;;;;;9.88;8.95;;;15.10;99.90;;;;;;2094540;28;20034;-72
2023/05/12 03:43:53;;;;;;;11.15;10.00;;;15.10;99.90;;;;;;2093388;28;20037;-72
2023/05/12 03:44:53;;;;;;;10.82;9.82;;;15.10;99.90;;;;;;2093360;28;20021;-72
2023/05/12 03:45:54;;;;;;;10.60;9.65;;;15.10;99.90;;;;;;2094794;28;20036;-72
2023/05/12 03:46:54;;;;;;;10.27;9.20;;;15.10;99.90;;;;;;2093364;28;20024;-72
2023/05/12 03:47:55;;;;;;;10.55;9.55;;;15.10;99.90;;;;;;2092906;28;20464;-72
2023/05/12 03:48:55;;;;;;;10.35;9.38;;;15.10;99.90;;;;;;2091659;28;20016;-72
2023/05/12 03:49:57;;;;;;;10.98;9.70;;;15.10;99.90;;;;;;2092849;28;20032;-72
2023/05/12 03:50:58;;;;;;;11.82;9.35;;;15.10;99.90;;;;;;2093706;28;20017;-72
2023/05/12 03:51:58;;;;;;;10.95;9.73;;;15.10;99.90;;;;;;2090830;28;20052;-72
2023/05/12 03:52:59;;;;;;;11.88;9.85;;;15.10;99.90;;;;;;2091508;28;20399;-72
2023/05/12 03:54:00;;;;;;;10.55;9.43;;;15.10;99.90;;;;;;2091530;28;20083;-72
2023/05/12 03:55:00;;;;;;;13.95;9.63;;;15.10;99.90;;;;;;2090971;28;20021;-72
2023/05/12 03:56:04;;;;;;;11.07;9.98;;;15.10;99.90;;;;;;2092315;28;20063;-72
2023/05/12 03:57:05;;;;;;;10.05;8.80;;;15.10;99.90;;;;;;2092693;28;20097;-72
2023/05/12 03:58:06;;;;;;;10.05;9.02;;;15.10;99.90;;;;;;2090626;28;20115;-72
2023/05/12 03:59:06;;;;;;;10.90;9.85;;;15.10;99.90;;;;;;2093998;28;20024;-72
2023/05/12 04:00:08;;;;;;;10.55;9.57;;;15.10;99.90;;;;;;2088612;28;20025;-72
2023/05/12 04:01:08;;;;;;;10.85;9.23;;;15.10;99.90;;;;;;2091069;28;20039;-72
2023/05/12 04:02:11;;;;;;;10.38;9.40;;;15.10;99.90;;;;;;2093335;28;20037;-72
2023/05/12 04:03:12;;;;;;;10.77;9.68;;;15.10;99.90;;;;;;2093109;28;20828;-72
2023/05/12 04:04:12;;;;;;;10.68;9.50;;;15.10;99.90;;;;;;2092273;28;20025;-72
2023/05/12 04:05:13;;;;;;;10.05;9.13;;;15.10;99.90;;;;;;2093182;28;20032;-72
2023/05/12 04:06:13;;;;;;;10.57;9.50;;;15.10;99.90;;;;;;2092313;28;20016;-72
2023/05/12 04:07:14;;;;;;;10.00;9.10;;;15.10;99.90;;;;;;2092628;28;20484;-72
2023/05/12 04:08:15;;;;;;;10.27;9.27;;;15.10;99.90;;;;;;2093181;28;20123;-72
2023/05/12 04:09:15;;;;;;;10.18;9.18;;;15.10;99.90;;;;;;2092279;28;20032;-72
2023/05/12 04:10:16;;;;;;;9.70;8.80;;;15.10;99.90;;;;;;2090108;28;20021;-72
2023/05/12 04:11:16;;;;;;;9.60;8.75;;;15.10;99.90;;;;;;2094597;28;20087;-72
2023/05/12 04:12:17;;;;;;;9.73;8.70;;;15.10;99.90;;;;;;2094938;28;20032;-72
2023/05/12 04:13:17;;;;;;;9.35;8.45;;;15.10;99.90;;;;;;2093819;28;20115;-72
2023/05/12 04:14:19;;;;;;;9.18;8.38;;;15.10;99.90;;;;;;2091873;28;20028;-72
2023/05/12 04:15:20;;;;;;;10.02;9.00;;;15.10;99.90;;;;;;2091381;28;20056;-72
2023/05/12 04:16:21;;;;;;;11.52;9.20;;;15.10;99.90;;;;;;2090069;28;20021;-72
2023/05/12 04:17:21;;;;;;;9.60;8.73;;;15.10;99.90;;;;;;2092954;28;20549;-72
2023/05/12 04:18:23;;;;;;;9.73;8.82;;;15.10;99.90;;;;;;2091920;28;20817;-72
2023/05/12 04:19:24;;;;;;;12.93;10.18;;;15.10;99.90;;;;;;2091565;28;20021;-72
2023/05/12 04:20:24;;;;;;;10.32;9.30;;;15.10;99.90;;;;;;2092288;28;20480;-72
2023/05/12 04:21:25;;;;;;;9.90;9.10;;;15.10;99.90;;;;;;2093355;28;20029;-72
2023/05/12 04:22:25;;;;;;;10.43;9.43;;;15.10;99.90;;;;;;2093985;28;20113;-72
2023/05/12 04:23:26;;;;;;;9.73;8.70;;;15.10;99.90;;;;;;2096278;28;20017;-72
2023/05/12 04:24:26;;;;;;;9.95;8.95;;;15.10;99.90;;;;;;2095339;28;20017;-72
2023/05/12 04:25:27;;;;;;;9.80;8.82;;;15.00;99.90;;;;;;2093506;28;20051;-72
2023/05/12 04:26:27;;;;;;;10.00;9.02;;;15.10;99.90;;;;;;2093089;28;20033;-72
2023/05/12 04:27:28;;;;;;;9.18;8.27;;;15.00;99.90;;;;;;2091875;28;20114;-72
2023/05/12 04:28:28;;;;;;;11.25;9.10;;;15.00;99.90;;;;;;2091235;28;20512;-72
2023/05/12 04:29:29;;;;;;;9.52;8.63;;;15.10;99.90;;;;;;2091714;28;20020;-72
2023/05/12 04:30:29;;;;;;;9.93;8.82;;;15.00;99.90;;;;;;2093775;28;20028;-72
2023/05/12 04:31:30;;;;;;;8.77;7.97;;;15.00;99.90;;;;;;2094377;28;20939;-71
2023/05/12 04:32:30;;;;;;;11.05;8.13;;;15.00;99.90;;;;;;2093170;28;20016;-72
2023/05/12 04:33:31;;;;;;;9.07;8.27;;;15.10;99.90;;;;;;2095377;28;20396;-71
2023/05/12 04:34:32;;;;;;;9.52;8.63;;;15.10;99.90;;;;;;2093042;28;20020;-72
2023/05/12 04:35:32;;;;;;;9.65;8.65;;;15.10;99.90;;;;;;2094087;28;20033;-72
2023/05/12 04:36:33;;;;;;;9.07;8.18;;;15.10;99.90;;;;;;2092988;28;20021;-72
2023/05/12 04:37:33;;;;;;;9.65;8.77;;;15.10;99.90;;;;;;2095808;28;20017;-72
2023/05/12 04:38:34;;;;;;;8.70;7.80;;;15.10;99.90;;;;;;2093116;28;20464;-72
2023/05/12 04:39:34;;;;;;;10.15;7.72;;;15.10;99.90;;;;;;2093001;28;20021;-72
2023/05/12 04:40:35;;;;;;;12.73;8.13;;;15.10;99.90;;;;;;2093720;28;20553;-72
2023/05/12 04:41:35;;;;;;;8.90;7.78;;;15.10;99.90;;;;;;2092530;28;20089;-72
2023/05/12 04:42:36;;;;;;;9.15;7.28;;;15.10;99.90;;;;;;2094250;28;20074;-72
2023/05/12 04:43:36;;;;;;;7.15;6.55;;;15.10;99.90;;;;;;2093688;28;20070;-72
2023/05/12 04:44:37;;;;;;;10.50;7.85;;;15.10;99.90;;;;;;2092903;28;20044;-72
2023/05/12 04:45:37;;;;;;;10.80;7.93;;;15.10;99.90;;;;;;2092519;28;20097;-72
2023/05/12 04:46:38;;;;;;;9.40;7.95;;;15.10;99.90;;;;;;2092663;28;20103;-71
2023/05/12 04:47:39;;;;;;;8.60;7.80;;;15.10;99.90;;;;;;2094137;28;20028;-72
2023/05/12 04:48:40;;;;;;;10.13;8.13;;;15.20;99.90;;;;;;2091798;28;20143;-72
2023/05/12 04:49:41;;;;;;;7.78;6.97;;;15.20;99.90;;;;;;2095345;28;20037;-72
2023/05/12 04:50:42;;;;;;;11.15;8.05;;;15.20;99.90;;;;;;2093145;28;20480;-72
2023/05/12 04:51:43;;;;;;;7.72;7.03;;;15.10;99.90;;;;;;2093693;28;20035;-72
2023/05/12 04:52:43;;;;;;;8.70;7.63;;;15.20;99.90;;;;;;2095528;28;20536;-72
2023/05/12 04:53:44;;;;;;;7.30;6.57;;;15.20;99.90;;;;;;2093577;28;20458;-72
2023/05/12 04:54:45;;;;;;;8.00;6.57;;;15.20;99.90;;;;;;2092016;28;20032;-72
2023/05/12 04:55:45;;;;;;;11.65;6.60;;;15.20;99.90;;;;;;2090315;28;20381;-71
2023/05/12 04:56:46;;;;;;;11.32;6.20;;;15.20;99.90;;;;;;2090968;28;20103;-72
2023/05/12 04:57:47;;;;;;;7.65;6.20;;;15.20;99.90;;;;;;2095223;28;20480;-72
2023/05/12 04:58:47;;;;;;;6.63;6.05;;;15.20;99.90;;;;;;2093353;28;20505;-72
2023/05/12 04:59:48;;;;;;;6.63;6.03;;;15.20;99.90;;;;;;2091744;28;20029;-72
2023/05/12 05:00:49;;;;;;;5.32;4.85;;;15.20;99.90;;;;;;2094235;28;20040;-72
2023/05/12 05:01:49;;;;;;;5.82;5.22;;;15.20;99.90;;;;;;2091781;28;20112;-72
2023/05/12 05:02:50;;;;;;;5.88;5.07;;;15.20;99.90;;;;;;2093183;28;20036;-72
2023/05/12 05:03:50;;;;;;;4.78;4.38;;;15.30;99.90;;;;;;2090441;28;20039;-72
2023/05/12 05:04:51;;;;;;;5.07;4.68;;;15.30;99.90;;;;;;2091175;28;20029;-72
2023/05/12 05:05:52;;;;;;;4.47;4.07;;;15.30;99.90;;;;;;2092955;28;20385;-72
2023/05/12 05:06:54;;;;;;;4.93;4.47;;;15.30;99.90;;;;;;2091873;28;20027;-72
2023/05/12 05:07:55;;;;;;;4.97;4.50;;;15.30;99.90;;;;;;2093202;28;20723;-72
2023/05/12 05:08:56;;;;;;;5.18;4.40;;;15.40;99.90;;;;;;2092257;28;20070;-72
2023/05/12 05:09:56;;;;;;;7.18;4.80;;;15.40;99.90;;;;;;2090142;28;20021;-72
2023/05/12 05:10:57;;;;;;;4.60;4.20;;;15.40;99.90;;;;;;2091153;28;20377;-72